Latest Weather Observations for Tuggeranong

IDN60801

Issued at 8:03 pm EDT Tuesday 16 January 2018 (issued every 30 minutes, with the page automatically refreshed every 10 minutes)

About weather observations | Map of weather stations | Latest weather observations for NSW | Other Formats
Station Details ID: 070339 Name: TUGGERANONG (ISABELLA PLAINS) AWS Lat: -35.42 Lon: 149.09 Height: 586.7 m
Data from the previous 72 hours. | See also: Recent months at Tuggeranong
Date/Time
EDT
Temp
°C
App
Temp
°C
Dew
Point
°C
Rel
Hum
%
Delta-T
°C
Wind Press
QNH
hPa
Press
MSL
hPa
Rain since
9am
mm
Dir  Spd
km/h
Gust
km/h
Spd
kts
Gust
kts
16/08:00pm 21.1 16.2 4.2 33 8.4 SSE 19 30 10 16 1019.5 1016.6 0.0
16/07:30pm 22.0 17.3 5.0 33 8.6 SE 19 32 10 17 1019.3 1016.3 0.0
16/07:00pm 22.6 17.4 5.5 33 8.8 SE 22 32 12 17 1019.1 1016.2 0.0
16/06:30pm 23.0 18.0 4.5 30 9.4 SE 20 35 11 19 1019.1 1016.2 0.0
16/06:00pm 23.5 18.7 4.9 30 9.5 SSE 19 30 10 16 1018.7 1015.8 0.0
16/05:30pm 23.8 18.6 5.7 31 9.4 SSE 22 33 12 18 1018.9 1016.0 0.0
16/05:00pm 24.0 18.9 5.8 31 9.5 SE 22 37 12 20 1019.1 1016.2 0.0
16/04:30pm 24.0 18.8 5.4 30 9.7 SE 22 37 12 20 1019.3 1016.3 0.0
16/04:00pm 24.0 19.2 5.4 30 9.6 SSE 20 39 11 21 1019.4 1016.4 0.0
16/03:30pm 23.5 18.7 5.4 31 9.4 SSE 20 32 11 17 1019.7 1016.8 0.0
16/03:00pm 23.5 19.3 5.9 32 9.2 SE 17 28 9 15 1019.8 1016.9 0.0
16/02:30pm 23.1 17.7 4.6 30 9.4 SE 22 35 12 19 1020.3 1017.4 0.0
16/02:00pm 22.8 17.8 4.8 31 9.2 SSE 20 32 11 17 1020.6 1017.7 0.0
16/01:30pm 22.0 16.2 4.6 32 8.8 SE 24 35 13 19 1020.9 1018.1 0.0
16/01:00pm 21.5 15.6 4.1 32 8.7 SE 24 33 13 18 1021.2 1018.3 0.0
16/12:30pm 21.1 15.6 4.2 33 8.4 SSE 22 35 12 19 1021.7 1018.8 0.0
16/12:00pm 20.0 14.3 4.9 37 7.6 SE 24 32 13 17 1022.0 1019.1 0.0
16/11:30am 19.4 14.0 4.4 37 7.4 SE 22 37 12 20 1022.4 1019.5 0.0
16/11:00am 17.9 12.0 3.8 39 6.8 SSE 24 37 13 20 1022.6 1019.8 0.0
16/10:30am 17.7 12.8 5.0 43 6.3 SSE 20 32 11 17 1022.9 1020.0 0.0
16/10:00am 16.7 11.5 5.3 47 5.6 SSE 22 35 12 19 1022.7 1019.9 0.0
16/09:30am 15.8 10.5 4.8 48 5.4 S 22 35 12 19 1022.7 1019.9 0.0
16/09:00am 14.9 9.7 5.4 53 4.6 SSE 22 39 12 21 1022.7 1019.9 0.0
16/08:35am 14.0 7.6 5.1 55 4.3 SSE 28 46 15 25 1022.5 1019.7 0.0
16/08:30am 14.0 8.3 5.1 55 4.3 SSE 24 44 13 24 1022.4 1019.5 0.0
16/08:00am 13.2 6.1 5.4 59 3.8 S 32 50 17 27 1022.0 1019.1 0.0
16/07:50am 13.1 6.7 5.0 58 3.9 SSE 28 50 15 27 1021.8 1018.9 0.0
16/07:30am 13.0 7.8 5.4 60 3.7 SSE 22 32 12 17 1021.7 1018.8 0.0
16/07:00am 12.7 9.1 4.9 59 3.7 S 13 17 7 9 1021.5 1018.6 0.0
16/06:30am 12.1 7.4 5.0 62 3.4 SSE 19 32 10 17 1021.4 1018.5 0.0
16/06:00am 12.1 7.9 5.7 65 3.1 SSE 17 28 9 15 1020.8 1017.9 0.0
16/05:30am 12.6 8.1 6.0 64 3.2 S 19 32 10 17 1020.6 1017.7 0.0
16/05:00am 12.6 9.0 6.6 67 3.0 SSE 15 22 8 12 1020.7 1017.8 0.0
16/04:30am 12.9 7.7 7.1 68 2.9 SSE 24 43 13 23 1020.6 1017.7 0.0
16/04:09am 13.2 7.3 7.4 68 2.9 SSE 28 46 15 25 1020.5 1017.6 0.0
16/04:00am 13.2 8.1 7.6 69 2.8 SSE 24 41 13 22 1020.6 1017.7 0.0
16/03:30am 13.5 8.8 7.9 69 2.9 SSE 22 33 12 18 1020.7 1017.8 0.0
16/03:00am 14.0 9.5 8.4 69 2.9 SSE 22 35 12 19 1020.7 1017.8 0.0
16/02:30am 14.3 10.3 9.1 71 2.7 SSE 20 32 11 17 1020.6 1017.7 0.0
16/02:00am 15.0 10.8 9.6 70 2.9 SSE 22 39 12 21 1020.5 1017.6 0.0
16/01:30am 15.2 11.6 10.0 71 2.8 S 19 30 10 16 1020.7 1017.8 0.0
16/01:00am 15.6 12.4 9.9 69 3.1 SSE 17 41 9 22 1020.8 1017.9 0.0
16/12:30am 16.2 11.7 10.1 67 3.3 SSE 24 35 13 19 1020.9 1018.1 0.0
16/12:00am 16.4 12.3 10.0 66 3.5 SSE 22 35 12 19 1020.6 1017.7 0.0
 
Date/Time
EDT
Temp
°C
App
Temp
°C
Dew
Point
°C
Rel
Hum
%
Delta-T
°C
Wind Press
QNH
hPa
Press
MSL
hPa
Rain since
9am
mm
Dir  Spd
km/h
Gust
km/h
Spd
kts
Gust
kts
15/11:30pm 16.8 13.3 10.2 65 3.6 SSE 19 30 10 16 1020.4 1017.5 0.0
15/11:00pm 17.2 14.3 9.6 61 4.1 SE 15 24 8 13 1020.3 1017.4 0.0
15/10:30pm 17.9 14.8 8.7 55 4.9 SE 15 26 8 14 1019.9 1017.0 0.0
15/10:00pm 17.9 15.8 8.2 53 5.1 ESE 9 11 5 6 1019.6 1016.7 0.0
15/09:30pm 18.8 16.2 7.9 49 5.8 SE 11 19 6 10 1019.1 1016.2 0.0
15/09:00pm 19.4 15.7 7.8 47 6.1 SSE 17 32 9 17 1018.8 1015.9 0.0
15/08:30pm 20.0 16.1 7.1 43 6.8 SSE 17 26 9 14 1018.6 1015.7 0.0
15/08:00pm 21.2 16.4 7.4 41 7.3 SSE 22 37 12 20 1018.0 1015.1 0.0
15/07:30pm 22.2 17.0 7.2 38 8.0 SSE 24 43 13 23 1017.3 1014.4 0.0
15/07:00pm 23.2 18.2 6.5 34 8.8 SSE 22 35 12 19 1016.9 1014.0 0.0
15/06:30pm 24.1 19.0 7.7 35 8.9 S 24 35 13 19 1016.4 1013.5 0.0
15/06:00pm 24.3 19.8 7.0 33 9.3 SSW 20 32 11 17 1016.0 1013.0 0.0
15/05:30pm 24.6 19.4 7.3 33 9.3 S 24 35 13 19 1015.9 1012.9 0.0
15/05:00pm 24.7 19.2 7.4 33 9.3 SSW 26 39 14 21 1015.8 1012.8 0.0
15/04:30pm 24.7 20.7 9.0 37 8.7 S 20 30 11 16 1015.8 1012.8 0.0
15/04:00pm 24.1 20.4 10.0 41 7.9 S 20 33 11 18 1016.0 1013.0 0.0
15/03:30pm 24.3 21.0 10.9 43 7.7 SSE 19 30 10 16 1016.1 1013.1 0.0
15/03:00pm 24.5 21.2 10.8 42 7.8 SSE 19 30 10 16 1016.1 1013.1 0.0
15/02:30pm 23.6 20.1 10.3 43 7.5 S 19 30 10 16 1016.2 1013.2 0.0
15/02:00pm 23.0 19.6 10.4 45 7.1 S 19 30 10 16 1016.5 1013.6 0.0
15/01:30pm 21.7 18.5 9.9 47 6.6 SSE 17 26 9 14 1016.7 1013.8 0.0
15/01:00pm 21.2 18.2 9.1 46 6.6 SSE 15 32 8 17 1017.1 1014.2 0.0
15/12:30pm 19.8 15.9 8.5 48 6.1 SSE 19 30 10 16 1017.6 1014.6 0.0
15/12:00pm 19.4 15.5 8.7 50 5.7 SSE 19 28 10 15 1017.9 1015.0 0.0
15/11:30am 18.6 14.7 8.6 52 5.3 SSE 19 33 10 18 1018.1 1015.2 0.0
15/11:00am 18.4 14.7 7.8 50 5.6 SSE 17 28 9 15 1018.1 1015.2 0.0
15/10:30am 17.3 13.5 7.6 53 5.0 SSE 17 28 9 15 1018.3 1015.4 0.0
15/10:00am 16.1 12.1 6.5 53 4.8 SSE 17 26 9 14 1018.2 1015.3 0.0
15/09:30am 15.0 11.3 6.3 56 4.3 SSE 15 20 8 11 1018.3 1015.4 0.0
15/09:00am 13.7 10.1 5.1 56 4.1 SSE 13 20 7 11 1018.4 1015.5 0.0
15/08:30am 13.0 9.4 4.9 58 3.9 SSE 13 19 7 10 1018.6 1015.7 0.0
15/08:00am 12.6 9.0 4.8 59 3.7 SSE 13 20 7 11 1018.3 1015.4 0.0
15/07:30am 12.2 8.3 5.4 63 3.3 SSE 15 24 8 13 1017.6 1014.6 0.0
15/07:00am 11.7 8.3 5.8 67 2.8 SSE 13 22 7 12 1017.5 1014.5 0.0
15/06:30am 10.2 8.6 6.5 78 1.8 ESE 4 9 2 5 1017.3 1014.4 0.0
15/06:00am 8.4 7.0 5.7 83 1.3 SE 2 7 1 4 1017.2 1014.3 0.0
15/05:30am 8.4 7.2 4.8 78 1.7 CALM 0 0 0 0 1016.9 1014.0 0.0
15/05:00am 10.3 7.6 5.5 72 2.3 S 9 13 5 7 1016.5 1013.6 0.0
15/04:30am 10.8 8.0 5.1 68 2.7 SE 9 13 5 7 1016.2 1013.2 0.0
15/04:00am 11.4 7.5 5.3 66 2.9 SSE 15 24 8 13 1016.3 1013.3 0.0
15/03:30am 11.4 8.3 5.7 68 2.7 S 11 19 6 10 1016.3 1013.3 0.0
15/03:00am 10.6 8.2 5.2 69 2.5 E 7 13 4 7 1016.1 1013.1 0.0
15/02:30am 11.0 8.8 5.1 67 2.8 SE 6 9 3 5 1016.4 1013.5 0.0
15/02:00am 11.4 9.6 5.3 66 2.9 SE 4 11 2 6 1016.6 1013.7 0.0
15/01:30am 12.0 9.2 5.2 63 3.2 SE 9 13 5 7 1016.4 1013.5 0.0
15/01:00am 12.6 8.6 5.1 60 3.6 SE 15 22 8 12 1016.4 1013.5 0.0
15/12:30am 12.8 8.9 5.2 60 3.6 SE 15 22 8 12 1016.5 1013.6 0.0
15/12:00am 13.4 9.1 5.3 58 3.9 SE 17 28 9 15 1016.6 1013.7 0.0
 
Date/Time
EDT
Temp
°C
App
Temp
°C
Dew
Point
°C
Rel
Hum
%
Delta-T
°C
Wind Press
QNH
hPa
Press
MSL
hPa
Rain since
9am
mm
Dir  Spd
km/h
Gust
km/h
Spd
kts
Gust
kts
14/11:30pm 14.0 10.1 5.4 56 4.2 SSE 15 24 8 13 1016.6 1013.7 0.0
14/11:00pm 14.6 10.3 5.4 54 4.5 SE 17 24 9 13 1016.8 1013.9 0.0
14/10:30pm 15.0 12.0 5.8 54 4.5 SSE 11 19 6 10 1016.8 1013.9 0.0
14/10:00pm 15.0 12.0 5.8 54 4.5 SSE 11 15 6 8 1016.6 1013.7 0.0
14/09:30pm 15.3 12.3 5.8 53 4.7 SSE 11 17 6 9 1016.2 1013.2 0.0
14/09:00pm 15.9 12.1 5.8 51 5.0 SSE 15 22 8 12 1015.8 1012.8 0.0
14/08:30pm 16.2 12.8 5.8 50 5.2 SSE 13 19 7 10 1015.4 1012.5 0.0
14/08:00pm 16.9 13.1 5.8 48 5.6 SE 15 22 8 12 1015.1 1012.2 0.0
14/07:30pm 18.0 14.2 5.9 45 6.1 SSE 15 22 8 12 1014.9 1012.0 0.0
14/07:00pm 18.4 13.6 4.9 41 6.7 S 19 33 10 18 1014.6 1011.6 0.0
14/06:30pm 19.3 14.5 5.4 40 7.0 SSW 20 37 11 20 1014.5 1011.5 0.0
14/06:00pm 19.4 14.2 5.5 40 7.0 SSW 22 35 12 19 1014.4 1011.4 0.0
14/05:30pm 19.7 15.1 5.7 40 7.1 S 19 28 10 15 1014.2 1011.2 0.0
14/05:00pm 19.4 14.1 5.1 39 7.2 S 22 37 12 20 1013.9 1010.9 0.0
14/04:30pm 19.6 14.0 5.6 40 7.1 SSW 24 41 13 22 1014.1 1011.1 0.0
14/04:00pm 18.4 12.7 4.9 41 6.7 S 24 39 13 21 1014.2 1011.2 0.0
14/03:30pm 18.7 12.7 5.5 42 6.6 SSE 26 37 14 20 1013.9 1010.9 0.0
14/03:08pm 18.0 10.8 5.2 43 6.4 SSE 32 57 17 31 1014.2 1011.2 0.0
14/03:00pm 19.1 12.0 5.6 41 6.8 SSE 32 48 17 26 1014.0 1011.0 0.0
14/02:30pm 19.2 11.9 5.6 41 6.9 S 33 54 18 29 1013.6 1010.7 0.0
14/02:00pm 18.6 11.8 5.1 41 6.7 S 30 48 16 26 1013.2 1010.2 0.0
14/01:30pm 18.5 11.8 5.7 43 6.5 SSE 30 48 16 26 1013.2 1010.2 0.0
14/01:25pm 17.9 11.0 4.8 42 6.5 S 30 48 16 26 1013.4 1010.5 0.0
14/01:00pm 17.9 11.9 5.2 43 6.3 S 26 43 14 23 1013.1 1010.1 0.0
14/12:36pm 18.0 11.1 4.6 41 6.6 S 30 48 16 26 1013.3 1010.4 0.0
14/12:30pm 16.8 9.8 4.2 43 6.1 S 30 41 16 22 1013.3 1010.4 0.0
14/12:09pm 17.3 10.7 4.3 42 6.3 S 28 48 15 26 1012.9 1009.9 0.0
14/12:00pm 18.5 12.1 5.0 41 6.7 S 28 43 15 23 1012.8 1009.8 0.0
14/11:30am 16.4 8.9 3.5 42 6.1 S 32 52 17 28 1012.6 1009.6 0.0
14/11:02am 16.3 9.1 3.0 41 6.3 S 30 52 16 28 1012.2 1009.2 0.0
14/11:00am 16.6 9.9 3.7 42 6.2 S 28 43 15 23 1012.1 1009.1 0.0
14/10:30am 15.8 8.3 3.6 44 5.8 S 32 50 17 27 1011.8 1008.9 0.0
14/10:00am 14.7 6.9 2.9 45 5.5 S 33 57 18 31 1011.6 1008.6 0.0
14/09:30am 13.7 6.9 3.2 49 4.9 S 28 48 15 26 1011.5 1008.5 0.0
14/09:00am 14.0 7.5 4.6 53 4.5 S 28 50 15 27 1011.2 1008.2 4.2
14/08:47am 13.2 6.5 3.6 52 4.5 S 28 48 15 26 1010.9 1007.9 4.2
14/08:30am 12.9 6.2 3.6 53 4.3 S 28 41 15 22 1010.7 1007.7 4.2
14/08:00am 12.5 6.7 4.5 58 3.8 S 24 35 13 19 1010.3 1007.3 4.2
14/07:30am 11.7 6.8 4.2 60 3.5 S 19 32 10 17 1009.6 1006.6 4.2
14/07:00am 11.1 6.9 3.9 61 3.3 S 15 26 8 14 1009.5 1006.5 4.2
14/06:30am 10.4 5.7 3.4 62 3.2 S 17 30 9 16 1008.6 1005.5 4.2
14/06:00am 10.1 5.8 3.4 63 3.0 SSE 15 22 8 12 1008.5 1005.4 4.2
14/05:30am 10.2 5.9 3.3 62 3.1 SSE 15 26 8 14 1008.0 1005.0 4.2
14/05:00am 10.2 6.4 3.9 65 2.9 SSW 13 24 7 13 1007.6 1004.6 4.2
14/04:30am 10.8 5.9 4.3 64 3.0 SSE 19 41 10 22 1006.8 1003.7 4.2
14/04:00am 10.5 7.1 6.1 74 2.1 SSE 13 19 7 10 1006.0 1003.0 4.2
14/03:30am 10.6 6.6 6.6 76 1.9 S 17 26 9 14 1006.0 1003.0 4.2
14/03:00am 10.9 7.2 6.1 72 2.3 S 15 30 8 16 1006.1 1003.1 4.0
14/02:30am 11.0 6.5 6.2 72 2.3 S 19 28 10 15 1005.8 1002.8 4.0
14/02:00am 10.9 6.4 7.0 77 1.9 SSE 20 32 11 17 1005.6 1002.5 4.0
14/01:30am 12.9 13.4 12.7 99 0.1 NNW 2 7 1 4 1004.6 1001.6 4.0
14/01:00am 13.3 14.1 12.5 95 0.4 CALM 0 0 0 0 1005.0 1001.9 4.0
14/12:30am 13.4 13.7 12.3 93 0.6 W 2 11 1 6 1005.4 1002.3 2.8
14/12:00am 13.6 13.9 12.3 92 0.7 N 2 9 1 5 1004.9 1001.8 2.0
 
Date/Time
EDT
Temp
°C
App
Temp
°C
Dew
Point
°C
Rel
Hum
%
Delta-T
°C
Wind Press
QNH
hPa
Press
MSL
hPa
Rain since
9am
mm
Dir  Spd
km/h
Gust
km/h
Spd
kts
Gust
kts
13/11:30pm 13.7 14.0 12.1 90 0.9 NW 2 11 1 6 1005.2 1002.1 1.4
13/11:00pm 13.9 12.7 11.6 86 1.3 NW 9 15 5 8 1005.4 1002.3 1.0
13/10:30pm 14.7 12.5 10.9 78 2.1 W 13 20 7 11 1005.5 1002.4 0.2
13/10:00pm 17.2 13.2 8.1 55 4.8 W 19 28 10 15 1005.2 1002.1 0.0
13/09:30pm 17.9 13.7 7.6 51 5.4 W 19 28 10 15 1004.8 1001.7 0.0
13/09:00pm 18.8 15.2 6.6 45 6.3 NW 15 22 8 12 1004.4 1001.4 0.0
13/08:30pm 18.9 15.5 5.7 42 6.7 NW 13 22 7 12 1004.2 1001.2 0.0

Other Formats:

Comma delimited format used in spreadsheet applications
http://www.bom.gov.au/fwo/IDN60801/IDN60801.94925.axf

JavaScript Object Notation format (JSON) in row-major order
http://www.bom.gov.au/fwo/IDN60801/IDN60801.94925.json